EGSS

London Stansted Airport

Airport
ICAO code
EGSS
IATA Code
STN
Summary
ICAO Region
EUR
ICAO Territory
Location

Stansted, England, United Kingdom, Essex

Serving
London
Elevation
348 ft
Coordinates
51° 53' 22" N , 0° 15' 41" E
KCC
Metar
Observation
EGSS 260220Z AUTO 23011KT 9999 -RA FEW031/// //////TCU 10/08 Q1005
Station
Stansted Airport
Date/Time
2022-09-26 02:20:00
Wind direction
230°
Wind speed
11 kts
Lowest cloud amount
few clouds
Temperature
10°C
Dew point
8°C
Humidity
87%
QNH
1005 hPa
Weather condition
light rain

London Stansted Airport is an international airport located at Stansted Mountfitchet in the district of Uttlesford in Essex, 42nm northeast of Central London.

Climatology

Temperate Marine climate/Oceanic climate (Köppen climate classification Cfb).

Runways

Designator Length Width Surface Rops
5/23 3048 46 ASP Yes/Yes

SKYbrary Partners:

Safety knowledge contributed by: